• Join FlightAware (Why Join?)
  • Login
  • US Flag 
02:36PM EDT


 

Airport Tracker/Info


-or-


 

Live Flight TrackerFlight Track Log ✈ N75AW ✈ 13-Jun-2013 ✈ KEYW - KAPF

Flight Track Log - Related Links

Times and Time Zones

All times are in EDT time to prevent confusion due to time zone crossing. See the N75AW flight status page for this flight to view local times or setup timezone preferences in your user account.

Time Position Orientation Groundspeed Altitude Reporting Facility
EDT Latitude Longitude Course Direction KTS MPH feet Rate Location/Type
10:31AM 24.6289 -81.7431 North 183 211 12,000  Level Miami Center
10:32AM 24.6656 -81.7147 35° Northeast 178 205 12,000  Level Miami Center
10:33AM 24.7019 -81.6842 37° Northeast 165 190 12,000  Level Miami Center
10:34AM 24.7406 -81.6536 36° Northeast 165 190 12,000  Level Miami Center
10:35AM 24.7814 -81.6186 38° Northeast 165 190 12,000  Level Miami Center
10:36AM 24.9033 -81.7630 359° North  Level Estimated
10:36AM 24.8389 -81.5797 32° Northeast 205 236 12,000  Level Miami Center
10:37AM 24.9119 -81.5872 355° North 227 261 12,000  Level Miami Center
10:38AM 24.9867 -81.5992 352° North 246 283 12,100  Climbing Miami Center
10:39AM 25.0614 -81.6114 352° North 260 299 12,100  Level Miami Center
10:40AM 25.1364 -81.6211 353° North 265 305 12,100  Level Miami Center
10:41AM 25.2111 -81.6331 352° North 265 305 12,100  Level Miami Center
10:42AM 25.2836 -81.6450 352° North 265 305 12,100  Level Miami Center
10:43AM 25.3583 -81.6594 350° North 265 305 12,100 -600 Level Miami Center
10:44AM 25.4331 -81.6742 350° North 265 305 11,000 -1,140 Descending Miami Center
10:45AM 25.5100 -81.6839 353° North 276 318 9,900 -1,200 Descending Miami Center
10:46AM 25.5889 -81.6964 352° North 276 318 8,700 -1,140 Descending Miami Center
10:47AM 25.6639 -81.7086 352° North 276 318 7,700 -1,380 Descending Miami Center
10:48AM 25.7492 -81.7189 354° North 276 318 6,000 -1,500 Descending Miami Center
10:49AM 25.8156 -81.7286 352° North 266 306 4,700 -1,020 Descending Miami Center
10:50AM 25.8781 -81.7333 356° North 243 280 4,000 -900 Descending Miami Center
10:51AM 25.9100 -81.7786 308° West 189 217 2,900 -540 Descending Miami Center
10:52AM 25.9294 -81.8186 298° West 184 212 3,000  Climbing Miami Center
10:53AM 25.9614 -81.8639 308° West 177 204 3,000 480 Level Miami Center
10:54AM 25.9911 -81.9067 308° West 177 204 4,000 480 Climbing Miami Center
10:55AM 26.0211 -81.9472 309° West 177 204 4,000  Level Miami Center
10:56AM 26.0389 -81.9733 307° West 177 204 4,000  Level Miami Center
10:59AM 26.0778 -81.8990 59° Northeast  Level FlightAware Approximate
11:06AM 26.1500 -81.7667 59° Northeast  Level FlightAware Approximate
11:07AM 26.1524 -81.7756 59° Northeast  Level Estimated
11:08AM 26.1524 -81.7756 59° Northeast  Level Estimated
11:09AM 26.1524 -81.7756 59° Northeast  Level Estimated